createdAt,value
2023-03-22T00:01:08.037Z,329.00
2023-03-22T00:05:08.229Z,330.00
2023-03-22T00:09:08.393Z,327.00
2023-03-22T00:13:08.556Z,325.00
2023-03-22T00:17:08.750Z,323.00
2023-03-22T00:21:08.956Z,323.00
2023-03-22T00:25:09.139Z,321.00
2023-03-22T00:29:09.341Z,327.00
2023-03-22T00:33:09.525Z,322.00
2023-03-22T00:37:09.726Z,321.00
2023-03-22T00:41:09.944Z,325.00
2023-03-22T00:45:10.092Z,319.00
2023-03-22T00:49:10.315Z,323.00
2023-03-22T00:53:10.543Z,325.00
2023-03-22T00:57:10.723Z,323.00
2023-03-22T01:01:10.940Z,320.00
2023-03-22T01:05:11.136Z,319.00
2023-03-22T01:09:11.276Z,319.00
2023-03-22T01:13:11.650Z,321.00
2023-03-22T01:17:11.769Z,317.00
2023-03-22T01:21:11.945Z,321.00
2023-03-22T01:25:12.152Z,317.00
2023-03-22T01:29:12.368Z,319.00
2023-03-22T01:33:12.575Z,322.00
2023-03-22T01:37:12.574Z,320.00
2023-03-22T01:41:12.525Z,318.00
2023-03-22T01:45:12.463Z,317.00
2023-03-22T01:49:12.513Z,319.00
2023-03-22T01:53:12.416Z,317.00
2023-03-22T01:57:12.367Z,318.00
2023-03-22T02:01:12.427Z,321.00
2023-03-22T02:05:12.369Z,316.00
2023-03-22T02:09:12.243Z,315.00
2023-03-22T02:13:12.255Z,320.00
2023-03-22T02:17:12.442Z,318.00
2023-03-22T02:21:12.393Z,317.00
2023-03-22T02:25:12.333Z,313.00
2023-03-22T02:29:12.314Z,313.00
2023-03-22T02:33:12.289Z,315.00
2023-03-22T02:37:12.271Z,315.00
2023-03-22T02:41:12.239Z,316.00
2023-03-22T02:45:12.151Z,314.00
2023-03-22T02:49:12.135Z,315.00
2023-03-22T02:53:12.112Z,315.00
2023-03-22T02:57:12.144Z,317.00
2023-03-22T03:01:12.234Z,321.00
2023-03-22T03:05:12.094Z,318.00
2023-03-22T03:09:12.113Z,320.00
2023-03-22T03:13:12.014Z,318.00
2023-03-22T03:17:11.963Z,315.00
2023-03-22T03:21:11.955Z,318.00
2023-03-22T03:25:11.919Z,317.00
2023-03-22T03:29:11.834Z,319.00
2023-03-22T03:33:11.779Z,316.00
2023-03-22T03:37:11.954Z,319.00
2023-03-22T03:41:11.887Z,317.00
2023-03-22T03:45:11.932Z,318.00
2023-03-22T03:49:11.830Z,319.00
2023-03-22T03:53:11.873Z,320.00
2023-03-22T03:57:11.753Z,316.00
2023-03-22T04:01:11.728Z,316.00
2023-03-22T04:05:11.664Z,314.00
2023-03-22T04:09:11.670Z,315.00
2023-03-22T04:13:11.597Z,310.00
2023-03-22T04:17:11.620Z,309.00
2023-03-22T04:21:11.554Z,312.00
2023-03-22T04:25:11.626Z,313.00
2023-03-22T04:29:11.639Z,310.00
2023-03-22T04:33:11.590Z,308.00
2023-03-22T04:37:11.663Z,306.00
2023-03-22T04:41:11.698Z,306.00
2023-03-22T04:45:11.638Z,307.00
2023-03-22T04:49:11.671Z,309.00
2023-03-22T04:53:11.653Z,312.00
2023-03-22T04:57:11.620Z,309.00
2023-03-22T05:01:11.684Z,308.00
2023-03-22T05:05:11.579Z,313.00
2023-03-22T05:09:11.567Z,317.00
2023-03-22T05:13:11.556Z,313.00
2023-03-22T05:17:11.580Z,318.00
2023-03-22T05:21:11.579Z,318.00
2023-03-22T05:25:11.709Z,323.00
2023-03-22T05:29:11.774Z,326.00
2023-03-22T05:33:11.757Z,324.00
2023-03-22T05:37:11.714Z,323.00
2023-03-22T05:41:11.772Z,329.00
2023-03-22T05:45:11.771Z,326.00
2023-03-22T05:49:12.296Z,330.00
2023-03-22T05:53:11.769Z,323.00
2023-03-22T05:57:11.881Z,313.00
2023-03-22T06:01:12.017Z,309.00
2023-03-22T06:05:12.147Z,302.00
2023-03-22T06:09:17.341Z,299.00
2023-03-22T06:13:13.300Z,292.00
2023-03-22T06:17:12.227Z,290.00
2023-03-22T06:21:12.156Z,289.00
2023-03-22T06:25:12.261Z,297.00
2023-03-22T06:29:12.353Z,303.00
2023-03-22T06:33:12.495Z,308.00
2023-03-22T06:37:12.753Z,313.00
2023-03-22T06:41:12.901Z,315.00
2023-03-22T06:45:12.825Z,318.00
2023-03-22T06:49:12.864Z,321.00
2023-03-22T06:53:12.983Z,320.00
2023-03-22T06:57:12.919Z,316.00
2023-03-22T07:01:13.034Z,315.00
2023-03-22T07:05:13.029Z,317.00
2023-03-22T07:09:13.063Z,318.00
2023-03-22T07:13:13.054Z,317.00
2023-03-22T07:17:19.779Z,315.00
2023-03-22T07:21:13.077Z,327.00
2023-03-22T07:25:13.001Z,345.00
2023-03-22T07:29:12.995Z,355.00
2023-03-22T07:33:12.946Z,363.00
2023-03-22T07:37:13.096Z,381.00
2023-03-22T07:41:12.868Z,384.00
2023-03-22T07:45:12.930Z,397.00
2023-03-22T07:49:12.845Z,406.00
2023-03-22T07:53:12.760Z,426.00
2023-03-22T07:57:12.899Z,434.00
2023-03-22T08:01:13.030Z,431.00
2023-03-22T08:05:13.272Z,430.00
2023-03-22T08:09:13.517Z,432.00
2023-03-22T08:13:13.499Z,427.00
2023-03-22T08:17:13.473Z,423.00
2023-03-22T08:21:13.385Z,415.00
2023-03-22T08:25:13.369Z,415.00
2023-03-22T08:29:13.327Z,412.00
2023-03-22T08:33:13.847Z,407.00
2023-03-22T08:37:13.363Z,406.00
2023-03-22T08:41:13.196Z,405.00
2023-03-22T08:45:13.179Z,415.00
2023-03-22T08:49:13.156Z,427.00
2023-03-22T08:53:13.153Z,438.00
2023-03-22T08:57:13.126Z,443.00
2023-03-22T09:01:13.192Z,445.00
2023-03-22T09:05:13.022Z,442.00
2023-03-22T09:09:12.983Z,441.00
2023-03-22T09:13:12.993Z,432.00
2023-03-22T09:17:12.961Z,426.00
2023-03-22T09:21:12.941Z,423.00
2023-03-22T09:25:13.453Z,421.00
2023-03-22T09:29:12.994Z,416.00
2023-03-22T09:33:12.967Z,415.00
2023-03-22T09:37:12.858Z,418.00
2023-03-22T09:41:12.866Z,421.00
2023-03-22T09:45:12.848Z,416.00
2023-03-22T09:49:12.805Z,404.00
2023-03-22T09:53:12.767Z,401.00
2023-03-22T09:57:12.698Z,409.00
2023-03-22T10:01:12.769Z,378.00
2023-03-22T10:05:12.653Z,374.00
2023-03-22T10:09:12.640Z,366.00
2023-03-22T10:13:12.558Z,351.00
2023-03-22T10:17:12.753Z,350.00
2023-03-22T10:21:12.952Z,347.00
2023-03-22T10:25:13.083Z,353.00
2023-03-22T10:29:13.285Z,367.00
2023-03-22T10:33:13.268Z,382.00
2023-03-22T10:37:13.186Z,378.00
2023-03-22T10:41:13.171Z,373.00
2023-03-22T10:45:13.131Z,426.00
2023-03-22T10:49:13.095Z,503.00
2023-03-22T10:53:13.047Z,546.00
2023-03-22T10:57:12.990Z,533.00
2023-03-22T11:01:13.225Z,554.00
2023-03-22T11:05:13.016Z,537.00
2023-03-22T11:09:13.389Z,483.00
2023-03-22T11:13:12.907Z,448.00
2023-03-22T11:17:12.832Z,421.00
2023-03-22T11:21:12.881Z,397.00
2023-03-22T11:25:12.899Z,376.00
2023-03-22T11:29:12.747Z,370.00
2023-03-22T11:33:12.697Z,363.00
2023-03-22T11:37:15.638Z,360.00
2023-03-22T11:41:13.620Z,356.00
2023-03-22T11:45:12.616Z,348.00
2023-03-22T11:49:12.856Z,338.00
2023-03-22T11:53:13.114Z,333.00
2023-03-22T11:57:13.337Z,326.00
2023-03-22T12:01:13.204Z,325.00
2023-03-22T12:05:13.239Z,324.00
2023-03-22T12:09:13.153Z,346.00
2023-03-22T12:13:13.190Z,357.00
2023-03-22T12:17:13.104Z,346.00
2023-03-22T12:21:13.095Z,352.00
2023-03-22T12:25:13.021Z,356.00
2023-03-22T12:29:12.982Z,357.00
2023-03-22T12:33:12.979Z,342.00
2023-03-22T12:37:12.932Z,329.00
2023-03-22T12:41:13.093Z,328.00
2023-03-22T12:45:13.292Z,327.00
2023-03-22T12:49:13.316Z,326.00
2023-03-22T12:53:13.384Z,328.00
2023-03-22T12:57:13.399Z,328.00
2023-03-22T13:01:13.583Z,323.00
2023-03-22T13:05:13.466Z,379.00
2023-03-22T13:09:13.554Z,438.00
2023-03-22T13:13:13.781Z,442.00
2023-03-22T13:17:13.986Z,466.00
2023-03-22T13:21:14.193Z,464.00
2023-03-22T13:25:14.352Z,469.00
2023-03-22T13:29:14.356Z,452.00
2023-03-22T13:33:14.383Z,463.00
2023-03-22T13:37:14.258Z,482.00
2023-03-22T13:41:14.278Z,479.00
2023-03-22T13:45:14.223Z,479.00
2023-03-22T13:49:14.258Z,477.00
2023-03-22T13:53:14.103Z,485.00
2023-03-22T13:57:14.090Z,431.00
2023-03-22T14:01:14.137Z,446.00
2023-03-22T14:05:14.021Z,427.00
2023-03-22T14:09:14.026Z,411.00
2023-03-22T14:13:13.947Z,415.00
2023-03-22T14:17:13.905Z,418.00
2023-03-22T14:21:13.899Z,415.00
2023-03-22T14:46:04.201Z,407.00
2023-03-22T14:50:04.177Z,522.00
2023-03-22T14:54:04.122Z,372.00
2023-03-22T14:58:04.105Z,355.00
2023-03-22T15:02:04.185Z,342.00
2023-03-22T15:06:04.002Z,325.00
2023-03-22T15:10:03.987Z,316.00
2023-03-22T15:14:03.940Z,307.00
2023-03-22T15:18:03.940Z,304.00
2023-03-22T15:22:03.869Z,298.00
2023-03-22T15:26:03.827Z,301.00
2023-03-22T15:30:03.833Z,299.00
2023-03-22T15:34:03.738Z,302.00
2023-03-22T15:38:03.714Z,303.00
2023-03-22T15:42:03.892Z,304.00
2023-03-22T15:46:04.247Z,302.00
2023-03-22T15:50:04.095Z,304.00
2023-03-22T15:54:04.108Z,304.00
2023-03-22T15:58:04.049Z,302.00
2023-03-22T16:02:04.030Z,303.00
2023-03-22T16:06:03.980Z,299.00
2023-03-22T16:10:03.927Z,297.00
2023-03-22T16:14:03.936Z,300.00
2023-03-22T16:18:03.839Z,297.00
2023-03-22T16:22:03.891Z,298.00
2023-03-22T16:26:03.800Z,298.00
2023-03-22T16:30:03.772Z,299.00
2023-03-22T16:34:03.732Z,303.00
2023-03-22T16:38:03.733Z,307.00
2023-03-22T16:42:03.649Z,308.00
2023-03-22T16:46:03.630Z,310.00
2023-03-22T16:50:03.793Z,304.00
2023-03-22T16:54:03.880Z,301.00
2023-03-22T16:58:04.043Z,300.00
2023-03-22T17:02:04.170Z,293.00
2023-03-22T17:06:04.352Z,294.00
2023-03-22T17:10:04.392Z,295.00
2023-03-22T17:14:04.543Z,300.00
2023-03-22T17:18:04.552Z,299.00
2023-03-22T17:22:04.505Z,304.00
2023-03-22T17:26:04.440Z,298.00
2023-03-22T17:30:04.419Z,300.00
2023-03-22T17:34:04.381Z,304.00
2023-03-22T17:38:04.348Z,305.00
2023-03-22T17:42:04.303Z,300.00
2023-03-22T17:46:48.996Z,296.00
2023-03-22T17:50:05.253Z,303.00
2023-03-22T17:54:33.935Z,306.00
2023-03-22T17:58:27.561Z,312.00
2023-03-22T18:02:05.170Z,312.00
2023-03-22T18:06:04.099Z,312.00
2023-03-22T18:10:04.081Z,313.00
2023-03-22T18:14:18.082Z,312.00
2023-03-22T18:18:05.057Z,313.00
2023-03-22T18:22:03.932Z,315.00
2023-03-22T18:26:04.077Z,316.00
2023-03-22T18:30:03.909Z,317.00
2023-03-22T18:34:04.149Z,318.00
2023-03-22T18:38:04.099Z,321.00
2023-03-22T18:42:16.538Z,332.00
2023-03-22T18:46:16.967Z,327.00
2023-03-22T18:50:04.974Z,330.00
2023-03-22T18:54:03.924Z,327.00
2023-03-22T18:58:03.914Z,327.00
2023-03-22T19:02:11.448Z,322.00
2023-03-22T19:06:04.857Z,317.00
2023-03-22T19:10:03.769Z,315.00
2023-03-22T19:14:38.357Z,319.00
2023-03-22T19:18:04.774Z,312.00
2023-03-22T19:22:03.679Z,313.00
2023-03-22T19:26:03.639Z,315.00
2023-03-22T19:30:04.977Z,316.00
2023-03-22T19:34:06.414Z,314.00
2023-03-22T19:38:03.710Z,315.00
2023-03-22T19:42:06.559Z,316.00
2023-03-22T19:46:03.678Z,314.00
2023-03-22T19:50:03.593Z,315.00
2023-03-22T19:54:24.309Z,312.00
2023-03-22T19:58:04.530Z,313.00
2023-03-22T20:02:03.579Z,311.00
2023-03-22T20:06:03.528Z,311.00
2023-03-22T20:10:03.492Z,308.00
2023-03-22T20:14:03.412Z,307.00
2023-03-22T20:18:03.335Z,309.00
2023-03-22T20:22:03.364Z,309.00
2023-03-22T20:26:04.696Z,306.00
2023-03-22T20:30:03.315Z,306.00
2023-03-22T20:34:03.244Z,302.00
2023-03-22T20:38:03.197Z,306.00
2023-03-22T20:42:03.233Z,308.00
2023-03-22T20:46:03.181Z,311.00
2023-03-22T20:50:03.201Z,308.00
2023-03-22T20:54:03.312Z,309.00
2023-03-22T20:58:03.298Z,309.00
2023-03-22T21:02:03.370Z,310.00
2023-03-22T21:06:03.449Z,308.00
2023-03-22T21:10:03.481Z,307.00
2023-03-22T21:14:03.453Z,306.00
2023-03-22T21:18:03.486Z,305.00
2023-03-22T21:22:05.295Z,304.00
2023-03-22T21:26:03.706Z,308.00
2023-03-22T21:30:03.865Z,309.00
2023-03-22T21:34:03.912Z,309.00
2023-03-22T21:38:04.082Z,309.00
2023-03-22T21:42:04.252Z,303.00
2023-03-22T21:46:04.434Z,302.00
2023-03-22T21:50:04.609Z,303.00
2023-03-22T21:54:04.765Z,301.00
2023-03-22T21:58:04.857Z,306.00
2023-03-22T22:02:05.120Z,310.00
2023-03-22T22:06:05.200Z,304.00
2023-03-22T22:10:05.327Z,303.00
2023-03-22T22:14:05.458Z,306.00
2023-03-22T22:18:05.529Z,303.00
2023-03-22T22:22:05.616Z,307.00
2023-03-22T22:26:05.700Z,310.00
2023-03-22T22:30:05.910Z,311.00
2023-03-22T22:34:05.939Z,302.00
2023-03-22T22:38:06.072Z,301.00
2023-03-22T22:42:06.151Z,303.00
2023-03-22T22:46:06.178Z,304.00
2023-03-22T22:50:06.241Z,300.00
2023-03-22T22:54:06.343Z,301.00
2023-03-22T22:58:06.373Z,302.00
2023-03-22T23:02:06.379Z,303.00
2023-03-22T23:06:06.313Z,299.00
2023-03-22T23:10:06.493Z,297.00
2023-03-22T23:14:06.682Z,297.00
2023-03-22T23:18:10.254Z,299.00
2023-03-22T23:22:06.781Z,302.00
2023-03-22T23:26:06.754Z,299.00
2023-03-22T23:30:06.673Z,297.00
2023-03-22T23:34:06.645Z,306.00
2023-03-22T23:38:06.692Z,308.00
2023-03-22T23:42:07.241Z,305.00
2023-03-22T23:46:06.573Z,299.00
2023-03-22T23:50:06.513Z,305.00
2023-03-22T23:54:06.462Z,305.00
2023-03-22T23:58:06.462Z,307.00
